createdAt,value
2023-05-22T00:00:37.471Z,235.10
2023-05-22T00:01:37.182Z,235.32
2023-05-22T00:02:37.249Z,235.58
2023-05-22T00:03:37.289Z,236.81
2023-05-22T00:04:37.200Z,237.50
2023-05-22T00:05:37.251Z,238.06
2023-05-22T00:06:37.214Z,238.25
2023-05-22T00:07:37.230Z,237.98
2023-05-22T00:08:37.233Z,237.47
2023-05-22T00:09:37.312Z,238.44
2023-05-22T00:10:37.591Z,237.12
2023-05-22T00:11:37.457Z,235.29
2023-05-22T00:12:37.626Z,234.39
2023-05-22T00:13:37.635Z,237.70
2023-05-22T00:14:37.672Z,239.38
2023-05-22T00:15:37.748Z,238.93
2023-05-22T00:16:37.855Z,241.22
2023-05-22T00:17:38.018Z,240.44
2023-05-22T00:18:37.969Z,239.05
2023-05-22T00:19:38.105Z,236.38
2023-05-22T00:20:38.230Z,239.53
2023-05-22T00:21:38.201Z,239.41
2023-05-22T00:22:38.253Z,239.57
2023-05-22T00:23:38.207Z,239.96
2023-05-22T00:24:38.205Z,241.12
2023-05-22T00:25:38.216Z,242.21
2023-05-22T00:26:38.214Z,240.98
2023-05-22T00:27:38.245Z,243.72
2023-05-22T00:28:38.235Z,240.98
2023-05-22T00:29:38.259Z,238.34
2023-05-22T00:30:38.589Z,238.94
2023-05-22T00:31:38.372Z,240.64
2023-05-22T00:32:38.396Z,240.74
2023-05-22T00:33:38.384Z,239.19
2023-05-22T00:34:38.457Z,239.16
2023-05-22T00:35:38.374Z,241.06
2023-05-22T00:36:38.372Z,241.56
2023-05-22T00:37:38.403Z,240.33
2023-05-22T00:38:38.394Z,241.16
2023-05-22T00:39:38.407Z,241.25
2023-05-22T00:40:38.694Z,240.40
2023-05-22T00:41:38.570Z,245.96
2023-05-22T00:42:38.553Z,245.99
2023-05-22T00:43:38.578Z,245.97
2023-05-22T00:44:38.543Z,244.23
2023-05-22T00:45:38.548Z,244.95
2023-05-22T00:46:38.661Z,242.21
2023-05-22T00:47:38.592Z,243.86
2023-05-22T00:48:38.569Z,245.99
2023-05-22T00:49:38.600Z,244.10
2023-05-22T00:50:38.838Z,245.78
2023-05-22T00:51:38.722Z,247.01
2023-05-22T00:52:38.802Z,245.27
2023-05-22T00:53:38.871Z,243.27
2023-05-22T00:54:38.870Z,243.46
2023-05-22T00:55:38.873Z,244.20
2023-05-22T00:56:38.871Z,244.33
2023-05-22T00:57:38.881Z,245.86
2023-05-22T00:58:38.878Z,245.40
2023-05-22T00:59:38.878Z,249.00
2023-05-22T01:00:39.042Z,248.03
2023-05-22T01:01:38.929Z,249.71
2023-05-22T01:02:38.972Z,247.34
2023-05-22T01:03:39.088Z,245.83
2023-05-22T01:04:39.087Z,245.13
2023-05-22T01:05:39.160Z,243.02
2023-05-22T01:06:39.223Z,243.37
2023-05-22T01:07:39.345Z,245.90
2023-05-22T01:08:39.376Z,246.08
2023-05-22T01:09:39.460Z,247.18
2023-05-22T01:10:39.677Z,248.19
2023-05-22T01:11:39.573Z,247.37
2023-05-22T01:12:39.643Z,245.31
2023-05-22T01:13:39.704Z,246.60
2023-05-22T01:14:39.766Z,249.07
2023-05-22T01:15:39.844Z,247.03
2023-05-22T01:16:39.950Z,244.73
2023-05-22T01:17:40.122Z,245.25
2023-05-22T01:18:40.041Z,244.25
2023-05-22T01:19:40.098Z,245.40
2023-05-22T01:20:40.390Z,248.25
2023-05-22T01:21:40.245Z,248.84
2023-05-22T01:22:40.328Z,248.95
2023-05-22T01:23:40.396Z,246.18
2023-05-22T01:24:40.455Z,244.04
2023-05-22T01:25:40.538Z,244.62
2023-05-22T01:26:40.607Z,246.12
2023-05-22T01:27:40.676Z,244.58
2023-05-22T01:28:40.728Z,242.94
2023-05-22T01:29:40.785Z,246.29
2023-05-22T01:30:41.008Z,247.79
2023-05-22T01:31:40.890Z,246.58
2023-05-22T01:32:41.027Z,246.65
2023-05-22T01:33:41.063Z,247.57
2023-05-22T01:34:41.019Z,248.69
2023-05-22T01:35:41.078Z,248.93
2023-05-22T01:36:41.149Z,246.86
2023-05-22T01:37:41.248Z,248.97
2023-05-22T01:38:41.296Z,247.36
2023-05-22T01:39:41.366Z,248.07
2023-05-22T01:40:41.485Z,246.71
2023-05-22T01:41:41.518Z,245.12
2023-05-22T01:42:41.574Z,245.60
2023-05-22T01:43:41.661Z,246.07
2023-05-22T01:44:41.728Z,249.08
2023-05-22T01:45:41.865Z,249.30
2023-05-22T01:46:41.885Z,247.69
2023-05-22T01:47:41.979Z,245.38
2023-05-22T01:48:42.027Z,247.45
2023-05-22T01:49:42.080Z,248.34
2023-05-22T01:50:42.253Z,246.15
2023-05-22T01:51:42.188Z,246.60
2023-05-22T01:52:42.286Z,244.65
2023-05-22T01:53:42.355Z,245.11
2023-05-22T01:54:42.435Z,245.13
2023-05-22T01:55:42.498Z,244.49
2023-05-22T01:56:42.509Z,244.65
2023-05-22T01:57:42.524Z,245.29
2023-05-22T01:58:42.509Z,246.65
2023-05-22T01:59:42.536Z,247.25
2023-05-22T02:00:42.992Z,247.86
2023-05-22T02:01:42.641Z,246.65
2023-05-22T02:02:42.641Z,247.08
2023-05-22T02:03:42.606Z,248.77
2023-05-22T02:04:42.594Z,245.49
2023-05-22T02:05:42.654Z,245.96
2023-05-22T02:06:42.714Z,244.70
2023-05-22T02:07:42.801Z,245.28
2023-05-22T02:08:42.831Z,245.70
2023-05-22T02:09:42.906Z,244.04
2023-05-22T02:10:42.966Z,244.64
2023-05-22T02:11:43.037Z,246.87
2023-05-22T02:12:43.085Z,246.76
2023-05-22T02:13:43.132Z,246.17
2023-05-22T02:14:43.180Z,244.71
2023-05-22T02:15:43.280Z,247.43
2023-05-22T02:16:43.300Z,247.33
2023-05-22T02:17:43.375Z,247.95
2023-05-22T02:18:43.647Z,247.24
2023-05-22T02:19:43.434Z,246.45
2023-05-22T02:20:43.598Z,245.21
2023-05-22T02:21:43.553Z,247.70
2023-05-22T02:22:43.653Z,247.32
2023-05-22T02:23:43.714Z,248.04
2023-05-22T02:24:43.696Z,248.16
2023-05-22T02:25:43.717Z,249.60
2023-05-22T02:26:43.756Z,249.27
2023-05-22T02:27:43.842Z,248.65
2023-05-22T02:28:43.907Z,245.31
2023-05-22T02:29:43.948Z,243.28
2023-05-22T02:30:43.957Z,246.12
2023-05-22T02:31:43.994Z,245.61
2023-05-22T02:32:44.099Z,246.71
2023-05-22T02:33:44.044Z,245.76
2023-05-22T02:34:44.075Z,247.39
2023-05-22T02:35:44.134Z,246.91
2023-05-22T02:36:44.171Z,245.64
2023-05-22T02:37:44.201Z,245.78
2023-05-22T02:38:44.182Z,246.41
2023-05-22T02:39:44.189Z,247.31
2023-05-22T02:40:44.197Z,248.40
2023-05-22T02:41:44.193Z,249.52
2023-05-22T02:42:44.216Z,248.05
2023-05-22T02:43:44.219Z,246.85
2023-05-22T02:44:44.218Z,246.76
2023-05-22T02:45:44.228Z,247.17
2023-05-22T02:46:44.253Z,243.71
2023-05-22T02:47:44.297Z,242.77
2023-05-22T02:48:44.264Z,245.30
2023-05-22T02:49:44.264Z,245.38
2023-05-22T02:50:44.313Z,243.45
2023-05-22T02:51:44.282Z,244.37
2023-05-22T02:52:44.293Z,245.30
2023-05-22T02:53:44.333Z,245.55
2023-05-22T02:54:44.344Z,245.61
2023-05-22T02:55:44.345Z,245.74
2023-05-22T02:56:44.348Z,245.93
2023-05-22T02:57:44.361Z,247.32
2023-05-22T02:58:44.370Z,247.46
2023-05-22T02:59:44.385Z,246.18
2023-05-22T03:00:44.386Z,247.18
2023-05-22T03:01:44.485Z,245.60
2023-05-22T03:02:44.562Z,245.24
2023-05-22T03:03:44.444Z,244.25
2023-05-22T03:04:44.401Z,246.09
2023-05-22T03:05:44.399Z,247.70
2023-05-22T03:06:44.414Z,248.55
2023-05-22T03:07:46.021Z,244.41
2023-05-22T03:08:44.420Z,244.62
2023-05-22T03:09:44.450Z,244.81
2023-05-22T03:10:44.463Z,245.60
2023-05-22T03:11:44.470Z,246.65
2023-05-22T03:12:44.494Z,246.45
2023-05-22T03:13:44.475Z,244.85
2023-05-22T03:14:44.501Z,247.05
2023-05-22T03:15:44.497Z,247.17
2023-05-22T03:16:44.671Z,248.63
2023-05-22T03:17:44.570Z,246.19
2023-05-22T03:18:44.570Z,245.60
2023-05-22T03:19:44.549Z,247.02
2023-05-22T03:20:44.563Z,246.48
2023-05-22T03:21:44.701Z,246.19
2023-05-22T03:22:44.604Z,248.54
2023-05-22T03:23:44.610Z,247.93
2023-05-22T03:24:44.604Z,248.85
2023-05-22T03:25:44.666Z,247.46
2023-05-22T03:26:44.635Z,248.34
2023-05-22T03:27:44.662Z,249.73
2023-05-22T03:28:44.672Z,248.61
2023-05-22T03:29:44.664Z,248.09
2023-05-22T03:30:44.672Z,249.08
2023-05-22T03:31:44.689Z,246.89
2023-05-22T03:32:44.732Z,246.70
2023-05-22T03:33:44.759Z,246.87
2023-05-22T03:34:44.725Z,244.64
2023-05-22T03:35:44.723Z,245.27
2023-05-22T03:36:44.721Z,244.86
2023-05-22T03:37:44.746Z,247.38
2023-05-22T03:38:44.756Z,246.68
2023-05-22T03:39:44.755Z,247.65
2023-05-22T03:40:44.800Z,245.09
2023-05-22T03:41:44.755Z,244.02
2023-05-22T03:42:44.770Z,248.45
2023-05-22T03:43:45.207Z,248.66
2023-05-22T03:44:44.791Z,245.59
2023-05-22T03:45:44.836Z,246.33
2023-05-22T03:46:44.818Z,246.59
2023-05-22T03:47:44.932Z,248.69
2023-05-22T03:48:44.832Z,246.72
2023-05-22T03:49:44.839Z,244.69
2023-05-22T03:50:44.854Z,244.64
2023-05-22T03:51:44.863Z,243.89
2023-05-22T03:52:44.903Z,244.74
2023-05-22T03:53:44.906Z,244.90
2023-05-22T03:54:44.905Z,244.57
2023-05-22T03:55:44.900Z,244.98
2023-05-22T03:56:44.952Z,243.69
2023-05-22T03:57:44.926Z,245.61
2023-05-22T03:58:44.941Z,245.03
2023-05-22T03:59:44.954Z,245.86
2023-05-22T04:00:44.972Z,246.96
2023-05-22T04:01:45.006Z,249.27
2023-05-22T04:02:45.378Z,248.77
2023-05-22T04:03:45.123Z,247.84
2023-05-22T04:04:45.058Z,244.43
2023-05-22T04:05:45.008Z,246.64
2023-05-22T04:06:45.023Z,246.91
2023-05-22T04:07:45.043Z,246.47
2023-05-22T04:08:45.049Z,247.12
2023-05-22T04:09:45.107Z,247.98
2023-05-22T04:10:45.066Z,249.28
2023-05-22T04:11:45.082Z,249.55
2023-05-22T04:12:45.091Z,247.57
2023-05-22T04:13:45.099Z,249.46
2023-05-22T04:14:45.119Z,247.81
2023-05-22T04:15:45.157Z,248.78
2023-05-22T04:16:45.136Z,248.40
2023-05-22T04:17:45.163Z,248.00
2023-05-22T04:18:45.221Z,246.73
2023-05-22T04:19:45.171Z,245.58
2023-05-22T04:20:45.169Z,248.55
2023-05-22T04:21:45.179Z,248.20
2023-05-22T04:22:45.201Z,248.86
2023-05-22T04:23:45.207Z,246.72
2023-05-22T04:24:45.299Z,248.90
2023-05-22T04:25:45.258Z,248.24
2023-05-22T04:26:45.265Z,246.75
2023-05-22T04:27:45.281Z,247.04
2023-05-22T04:28:45.354Z,246.58
2023-05-22T04:29:45.282Z,246.29
2023-05-22T04:30:45.300Z,248.46
2023-05-22T04:31:45.358Z,248.54
2023-05-22T04:32:45.372Z,248.86
2023-05-22T04:33:45.324Z,248.81
2023-05-22T04:34:45.322Z,248.02
2023-05-22T04:35:45.336Z,248.16
2023-05-22T04:36:45.502Z,248.29
2023-05-22T04:37:45.353Z,248.35
2023-05-22T04:38:45.369Z,246.51
2023-05-22T04:39:45.389Z,247.38
2023-05-22T04:40:45.378Z,248.20
2023-05-22T04:41:45.368Z,249.33
2023-05-22T04:42:45.400Z,248.73
2023-05-22T04:43:45.392Z,247.46
2023-05-22T04:44:45.411Z,248.20
2023-05-22T04:45:45.468Z,246.50
2023-05-22T04:46:45.438Z,247.23
2023-05-22T04:47:45.521Z,245.13
2023-05-22T04:48:45.451Z,246.47
2023-05-22T04:49:45.443Z,244.73
2023-05-22T04:50:45.455Z,245.96
2023-05-22T04:51:45.465Z,248.51
2023-05-22T04:52:45.473Z,246.11
2023-05-22T04:53:45.495Z,242.10
2023-05-22T04:54:45.493Z,243.06
2023-05-22T04:55:45.510Z,245.03
2023-05-22T04:56:45.515Z,246.43
2023-05-22T04:57:45.536Z,246.16
2023-05-22T04:58:45.543Z,246.02
2023-05-22T04:59:45.568Z,245.51
2023-05-22T05:00:45.711Z,245.23
2023-05-22T05:01:45.672Z,245.49
2023-05-22T05:02:45.644Z,243.40
2023-05-22T05:03:45.715Z,243.57
2023-05-22T05:04:45.626Z,245.67
2023-05-22T05:05:45.631Z,244.17
2023-05-22T05:06:45.656Z,245.61
2023-05-22T05:07:47.182Z,245.05
2023-05-22T05:08:45.671Z,245.12
2023-05-22T05:09:45.716Z,245.45
2023-05-22T05:10:45.697Z,245.48
2023-05-22T05:11:45.712Z,244.93
2023-05-22T05:12:45.755Z,242.68
2023-05-22T05:13:45.737Z,244.57
2023-05-22T05:14:45.743Z,243.10
2023-05-22T05:15:45.758Z,243.83
2023-05-22T05:16:45.790Z,242.56
2023-05-22T05:17:45.849Z,241.75
2023-05-22T05:18:45.814Z,240.70
2023-05-22T05:19:45.782Z,242.46
2023-05-22T05:20:45.807Z,242.36
2023-05-22T05:21:45.820Z,242.93
2023-05-22T05:22:45.831Z,242.37
2023-05-22T05:23:45.922Z,244.35
2023-05-22T05:24:45.860Z,243.87
2023-05-22T05:25:45.868Z,243.91
2023-05-22T05:26:45.874Z,243.68
2023-05-22T05:27:45.908Z,241.57
2023-05-22T05:28:45.984Z,243.23
2023-05-22T05:29:45.890Z,243.35
2023-05-22T05:30:45.913Z,244.21
2023-05-22T05:31:45.973Z,243.84
2023-05-22T05:32:45.989Z,243.35
2023-05-22T05:33:45.950Z,242.17
2023-05-22T05:34:45.976Z,244.69
2023-05-22T05:35:45.996Z,247.85
2023-05-22T05:36:46.012Z,248.94
2023-05-22T05:37:46.017Z,250.68
2023-05-22T05:38:46.969Z,250.00
2023-05-22T05:39:46.042Z,249.95
2023-05-22T05:40:46.112Z,250.00
2023-05-22T05:41:46.202Z,248.85
2023-05-22T05:42:46.262Z,251.31
2023-05-22T05:43:46.254Z,251.64
2023-05-22T05:44:46.265Z,253.91
2023-05-22T05:45:46.332Z,259.05
2023-05-22T05:46:46.305Z,269.27
2023-05-22T05:47:46.493Z,286.27
2023-05-22T05:48:46.311Z,277.03
2023-05-22T05:49:46.342Z,265.82
2023-05-22T05:50:46.371Z,256.64
2023-05-22T05:51:46.317Z,250.00
2023-05-22T05:52:46.390Z,250.02
2023-05-22T05:53:46.430Z,249.29
2023-05-22T05:54:46.555Z,248.72
2023-05-22T05:55:46.536Z,249.56
2023-05-22T05:56:46.570Z,250.00
2023-05-22T05:57:46.667Z,249.89
2023-05-22T05:58:46.683Z,250.00
2023-05-22T05:59:46.713Z,249.90
2023-05-22T06:00:46.725Z,250.00
2023-05-22T06:01:46.711Z,250.14
2023-05-22T06:02:49.589Z,250.92
2023-05-22T06:03:46.898Z,250.34
2023-05-22T06:04:46.808Z,251.71
2023-05-22T06:05:46.747Z,254.68
2023-05-22T06:06:46.731Z,258.74
2023-05-22T06:07:46.756Z,265.74
2023-05-22T06:08:46.791Z,258.12
2023-05-22T06:09:46.757Z,250.00
2023-05-22T06:10:46.687Z,250.15
2023-05-22T06:11:46.782Z,250.72
2023-05-22T06:12:46.736Z,251.93
2023-05-22T06:13:46.759Z,253.30
2023-05-22T06:14:46.662Z,255.90
2023-05-22T06:15:46.706Z,250.17
2023-05-22T06:16:46.692Z,249.81
2023-05-22T06:17:46.989Z,249.97
2023-05-22T06:18:46.697Z,250.00
2023-05-22T06:19:46.623Z,250.00
2023-05-22T06:20:46.860Z,249.65
2023-05-22T06:21:46.649Z,249.75
2023-05-22T06:22:46.606Z,249.82
2023-05-22T06:23:46.605Z,249.99
2023-05-22T06:24:46.607Z,251.06
2023-05-22T06:25:46.606Z,252.27
2023-05-22T06:26:46.583Z,252.85
2023-05-22T06:27:46.580Z,248.52
2023-05-22T06:28:46.590Z,250.00
2023-05-22T06:29:46.587Z,249.35
2023-05-22T06:30:46.760Z,248.19
2023-05-22T06:31:46.660Z,248.57
2023-05-22T06:32:46.832Z,250.00
2023-05-22T06:33:46.731Z,249.44
2023-05-22T06:34:46.516Z,248.30
2023-05-22T06:35:46.513Z,249.92
2023-05-22T06:36:46.491Z,247.34
2023-05-22T06:37:46.501Z,246.70
2023-05-22T06:38:46.496Z,246.76
2023-05-22T06:39:46.565Z,246.93
2023-05-22T06:40:46.468Z,247.95
2023-05-22T06:41:46.468Z,249.06
2023-05-22T06:42:46.572Z,259.21
2023-05-22T06:43:46.436Z,256.56
2023-05-22T06:44:46.558Z,247.69
2023-05-22T06:45:46.468Z,247.56
2023-05-22T06:46:46.400Z,249.74
2023-05-22T06:47:46.495Z,248.47
2023-05-22T06:48:46.492Z,246.83
2023-05-22T06:49:46.386Z,245.64
2023-05-22T06:50:46.341Z,246.60
2023-05-22T06:51:46.359Z,246.71
2023-05-22T06:52:46.329Z,246.52
2023-05-22T06:53:46.310Z,246.07
2023-05-22T06:54:46.395Z,249.31
2023-05-22T06:55:46.280Z,250.20
2023-05-22T06:56:46.279Z,250.40
2023-05-22T06:57:46.258Z,251.20
2023-05-22T06:58:46.246Z,252.57
2023-05-22T06:59:46.274Z,253.02
2023-05-22T07:00:46.218Z,258.74
2023-05-22T07:01:46.253Z,253.60
2023-05-22T07:02:46.312Z,250.00
2023-05-22T07:03:46.363Z,247.19
2023-05-22T07:04:46.168Z,247.90
2023-05-22T07:05:46.287Z,248.63
2023-05-22T07:06:46.129Z,249.22
2023-05-22T07:07:46.231Z,249.35
2023-05-22T07:08:46.100Z,256.48
2023-05-22T07:09:46.089Z,249.74
2023-05-22T07:10:46.072Z,248.38
2023-05-22T07:11:46.065Z,246.92
2023-05-22T07:12:46.067Z,245.69
2023-05-22T07:13:46.039Z,246.78
2023-05-22T07:14:46.064Z,246.31
2023-05-22T07:15:46.565Z,245.99
2023-05-22T07:16:46.125Z,244.53
2023-05-22T07:17:46.040Z,243.26
2023-05-22T07:18:46.131Z,243.28
2023-05-22T07:19:45.972Z,243.33
2023-05-22T07:20:45.950Z,241.62
2023-05-22T07:21:45.991Z,240.18
2023-05-22T07:22:45.944Z,236.33
2023-05-22T07:23:45.961Z,233.48
2023-05-22T07:24:46.036Z,231.75
2023-05-22T07:25:45.914Z,230.65
2023-05-22T07:26:45.892Z,230.22
2023-05-22T07:27:45.883Z,229.52
2023-05-22T07:28:45.888Z,229.07
2023-05-22T07:29:45.857Z,229.08
2023-05-22T07:30:45.852Z,228.72
2023-05-22T07:31:45.849Z,228.47
2023-05-22T07:32:45.844Z,226.68
2023-05-22T07:33:45.810Z,225.80
2023-05-22T07:34:45.804Z,222.81
2023-05-22T07:35:45.802Z,222.84
2023-05-22T07:36:45.938Z,222.93
2023-05-22T07:37:45.768Z,220.09
2023-05-22T07:38:45.733Z,219.18
2023-05-22T07:39:45.733Z,217.22
2023-05-22T07:40:46.333Z,216.08
2023-05-22T07:41:45.688Z,216.12
2023-05-22T07:42:45.688Z,215.91
2023-05-22T07:43:45.674Z,213.60
2023-05-22T07:44:45.637Z,211.12
2023-05-22T07:45:45.678Z,208.38
2023-05-22T07:46:45.662Z,208.82
2023-05-22T07:47:45.663Z,206.31
2023-05-22T07:48:45.612Z,204.96
2023-05-22T07:49:45.581Z,202.89
2023-05-22T07:50:45.599Z,201.96
2023-05-22T07:51:45.602Z,199.57
2023-05-22T07:52:45.597Z,198.50
2023-05-22T07:53:45.586Z,196.26
2023-05-22T07:54:45.920Z,193.82
2023-05-22T07:55:45.564Z,191.86
2023-05-22T07:56:45.757Z,189.32
2023-05-22T07:57:45.569Z,188.78
2023-05-22T07:58:45.526Z,188.82
2023-05-22T07:59:45.548Z,188.72
2023-05-22T08:00:45.548Z,187.53
2023-05-22T08:01:45.576Z,185.55
2023-05-22T08:02:45.734Z,182.63
2023-05-22T08:03:45.701Z,182.48
2023-05-22T08:04:45.585Z,181.78
2023-05-22T08:05:45.864Z,179.70
2023-05-22T08:06:46.501Z,178.69
2023-05-22T08:07:46.029Z,177.62
2023-05-22T08:08:45.656Z,178.75
2023-05-22T08:09:45.681Z,176.36
2023-05-22T08:11:02.613Z,176.46
2023-05-22T08:11:46.711Z,175.80
2023-05-22T08:12:45.696Z,176.25
2023-05-22T08:13:45.660Z,173.67
2023-05-22T08:14:45.669Z,172.68
2023-05-22T08:15:45.631Z,169.60
2023-05-22T08:16:45.630Z,168.16
2023-05-22T08:17:45.642Z,167.41
2023-05-22T08:18:45.613Z,166.70
2023-05-22T08:19:45.652Z,164.83
2023-05-22T08:20:45.535Z,163.44
2023-05-22T08:21:45.506Z,162.32
2023-05-22T08:22:45.505Z,162.45
2023-05-22T08:23:45.497Z,162.44
2023-05-22T08:24:45.471Z,162.77
2023-05-22T08:25:45.440Z,162.79
2023-05-22T08:26:45.434Z,164.17
2023-05-22T08:27:45.519Z,163.09
2023-05-22T08:28:45.375Z,163.22
2023-05-22T08:29:45.384Z,161.39
2023-05-22T08:30:45.347Z,160.40
2023-05-22T08:31:45.542Z,160.74
2023-05-22T08:32:45.515Z,164.97
2023-05-22T08:33:45.382Z,165.25
2023-05-22T08:34:45.398Z,164.56
2023-05-22T08:35:45.407Z,160.36
2023-05-22T08:36:45.391Z,156.16
2023-05-22T08:37:45.396Z,151.93
2023-05-22T08:38:45.354Z,148.94
2023-05-22T08:39:45.360Z,145.15
2023-05-22T08:40:46.460Z,141.41
2023-05-22T08:41:45.325Z,138.51
2023-05-22T08:42:45.295Z,132.16
2023-05-22T08:43:45.475Z,129.01
2023-05-22T08:44:45.518Z,126.80
2023-05-22T08:45:46.210Z,123.61
2023-05-22T08:46:45.670Z,120.38
2023-05-22T08:47:45.627Z,121.00
2023-05-22T08:48:45.268Z,118.00
2023-05-22T08:49:45.210Z,114.97
2023-05-22T08:50:45.210Z,112.38
2023-05-22T08:51:45.243Z,108.95
2023-05-22T08:52:45.170Z,106.66
2023-05-22T08:53:45.177Z,106.18
2023-05-22T08:54:46.063Z,102.32
2023-05-22T08:55:45.213Z,101.47
2023-05-22T08:56:55.781Z,99.60
2023-05-22T08:57:46.592Z,99.62
2023-05-22T08:58:45.076Z,96.43
2023-05-22T08:59:45.080Z,96.83
2023-05-22T09:00:45.169Z,95.56
2023-05-22T09:01:45.143Z,95.48
2023-05-22T09:02:45.065Z,95.32
2023-05-22T09:03:45.124Z,94.27
2023-05-22T09:04:44.982Z,92.96
2023-05-22T09:05:45.006Z,90.69
2023-05-22T09:06:44.992Z,88.58
2023-05-22T09:07:45.103Z,88.28
2023-05-22T09:08:44.945Z,88.90
2023-05-22T09:09:45.019Z,87.63
2023-05-22T09:10:44.940Z,88.20
2023-05-22T09:11:45.553Z,88.93
2023-05-22T09:12:44.903Z,85.94
2023-05-22T09:13:44.906Z,85.99
2023-05-22T09:14:44.896Z,86.29
2023-05-22T09:15:44.949Z,86.56
2023-05-22T09:16:45.062Z,87.27
2023-05-22T09:17:45.618Z,87.46
2023-05-22T09:18:44.868Z,87.53
2023-05-22T09:19:44.834Z,84.65
2023-05-22T09:20:44.779Z,85.58
2023-05-22T09:21:44.761Z,85.15
2023-05-22T09:22:44.749Z,85.89
2023-05-22T09:23:44.703Z,84.25
2023-05-22T09:24:44.687Z,83.02
2023-05-22T09:25:44.686Z,82.22
2023-05-22T09:26:44.658Z,83.63
2023-05-22T09:27:44.663Z,81.13
2023-05-22T09:28:44.680Z,78.87
2023-05-22T09:29:44.658Z,78.95
2023-05-22T09:30:44.661Z,79.38
2023-05-22T09:31:44.932Z,79.26
2023-05-22T09:32:44.766Z,79.14
2023-05-22T09:33:44.568Z,81.84
2023-05-22T09:34:44.554Z,81.32
2023-05-22T09:35:44.534Z,76.58
2023-05-22T09:36:44.520Z,75.39
2023-05-22T09:37:44.530Z,78.76
2023-05-22T09:38:44.580Z,82.38
2023-05-22T09:39:44.514Z,82.55
2023-05-22T09:40:44.540Z,84.72
2023-05-22T09:41:44.522Z,85.34
2023-05-22T09:42:44.455Z,93.07
2023-05-22T09:43:44.434Z,97.19
2023-05-22T09:44:44.566Z,102.68
2023-05-22T09:45:44.381Z,109.79
2023-05-22T09:46:44.492Z,110.11
2023-05-22T09:47:44.363Z,110.26
2023-05-22T09:48:44.311Z,112.26
2023-05-22T09:49:44.291Z,116.42
2023-05-22T09:50:44.297Z,123.77
2023-05-22T09:51:44.229Z,133.33
2023-05-22T09:52:44.250Z,137.00
2023-05-22T09:53:44.200Z,139.02
2023-05-22T09:54:44.235Z,142.52
2023-05-22T09:55:44.278Z,143.84
2023-05-22T09:56:44.372Z,143.98
2023-05-22T09:57:44.286Z,144.57
2023-05-22T09:58:44.205Z,146.28
2023-05-22T09:59:44.190Z,149.14
2023-05-22T10:00:44.144Z,144.22
2023-05-22T10:01:44.169Z,145.84
2023-05-22T10:02:44.180Z,148.82
2023-05-22T10:03:44.125Z,153.99
2023-05-22T10:04:44.209Z,144.50
2023-05-22T10:05:44.018Z,146.71
2023-05-22T10:06:44.018Z,150.65
2023-05-22T10:07:44.012Z,156.35
2023-05-22T10:08:44.661Z,165.12
2023-05-22T10:09:44.007Z,166.09
2023-05-22T10:10:43.919Z,166.23
2023-05-22T10:11:43.904Z,166.29
2023-05-22T10:12:43.886Z,164.99
2023-05-22T10:13:43.879Z,159.13
2023-05-22T10:14:43.833Z,136.04
2023-05-22T10:15:43.837Z,139.05
2023-05-22T10:16:43.768Z,144.90
2023-05-22T10:17:43.840Z,146.39
2023-05-22T10:18:43.799Z,142.02
2023-05-22T10:19:44.748Z,146.21
2023-05-22T10:20:43.830Z,116.98
2023-05-22T10:21:43.699Z,126.71
2023-05-22T10:22:43.686Z,125.07
2023-05-22T10:23:43.649Z,116.56
2023-05-22T10:24:44.627Z,121.76
2023-05-22T10:25:43.644Z,122.20
2023-05-22T10:26:43.572Z,115.94
2023-05-22T10:27:43.521Z,113.22
2023-05-22T10:28:43.714Z,106.43
2023-05-22T10:29:43.550Z,108.06
2023-05-22T10:30:43.495Z,106.77
2023-05-22T10:31:43.371Z,99.73
2023-05-22T10:32:43.435Z,106.59
2023-05-22T10:33:43.334Z,106.83
2023-05-22T10:34:44.071Z,108.48
2023-05-22T10:35:43.221Z,112.92
2023-05-22T10:36:43.700Z,119.37
2023-05-22T10:37:43.587Z,130.35
2023-05-22T10:38:43.146Z,134.80
2023-05-22T10:39:43.063Z,135.42
2023-05-22T10:40:43.107Z,138.37
2023-05-22T10:41:43.006Z,142.20
2023-05-22T10:42:42.970Z,142.56
2023-05-22T10:43:42.925Z,141.44
2023-05-22T10:44:42.891Z,141.79
2023-05-22T10:45:43.955Z,141.37
2023-05-22T10:46:42.885Z,137.99
2023-05-22T10:47:42.956Z,132.55
2023-05-22T10:48:42.857Z,126.69
2023-05-22T10:49:42.872Z,132.70
2023-05-22T10:50:42.905Z,140.07
2023-05-22T10:51:42.828Z,143.47
2023-05-22T10:52:42.937Z,145.50
2023-05-22T10:53:42.793Z,145.71
2023-05-22T10:54:42.894Z,142.98
2023-05-22T10:55:42.798Z,141.23
2023-05-22T10:56:42.787Z,139.13
2023-05-22T10:57:42.768Z,137.62
2023-05-22T10:58:42.780Z,134.68
2023-05-22T10:59:42.778Z,133.74
2023-05-22T11:00:42.897Z,134.29
2023-05-22T11:01:42.799Z,133.41
2023-05-22T11:02:42.918Z,132.19
2023-05-22T11:03:42.743Z,129.76
2023-05-22T11:04:42.709Z,127.14
2023-05-22T11:05:42.614Z,125.88
2023-05-22T11:06:42.830Z,123.92
2023-05-22T11:07:42.565Z,121.30
2023-05-22T11:08:42.607Z,119.21
2023-05-22T11:09:42.481Z,112.74
2023-05-22T11:10:42.455Z,108.37
2023-05-22T11:11:43.104Z,105.38
2023-05-22T11:12:42.384Z,103.80
2023-05-22T11:13:42.374Z,100.65
2023-05-22T11:14:42.350Z,96.97
2023-05-22T11:15:42.286Z,96.63
2023-05-22T11:16:42.299Z,95.93
2023-05-22T11:17:42.355Z,95.65
2023-05-22T11:18:42.224Z,95.86
2023-05-22T11:19:42.317Z,95.64
2023-05-22T11:20:42.374Z,94.23
2023-05-22T11:21:42.121Z,92.51
2023-05-22T11:22:42.181Z,91.76
2023-05-22T11:23:42.160Z,91.12
2023-05-22T11:24:42.251Z,89.04
2023-05-22T11:25:42.200Z,88.82
2023-05-22T11:26:42.194Z,87.14
2023-05-22T11:27:42.206Z,86.00
2023-05-22T11:28:42.243Z,83.91
2023-05-22T11:29:42.246Z,83.20
2023-05-22T11:30:42.449Z,82.31
2023-05-22T11:31:42.477Z,82.02
2023-05-22T11:32:42.301Z,83.30
2023-05-22T11:33:42.295Z,83.43
2023-05-22T11:34:43.189Z,80.88
2023-05-22T11:35:42.309Z,78.50
2023-05-22T11:36:42.325Z,75.78
2023-05-22T11:37:42.409Z,75.28
2023-05-22T11:38:42.327Z,73.35
2023-05-22T11:39:42.295Z,71.51
2023-05-22T11:40:42.551Z,70.87
2023-05-22T11:41:42.227Z,69.56
2023-05-22T11:42:42.205Z,66.78
2023-05-22T11:43:42.181Z,66.82
2023-05-22T11:44:42.154Z,67.48
2023-05-22T11:45:42.123Z,65.56
2023-05-22T11:46:42.152Z,66.18
2023-05-22T11:47:42.138Z,65.97
2023-05-22T11:48:42.060Z,65.29
2023-05-22T11:49:41.997Z,64.65
2023-05-22T11:50:42.805Z,65.73
2023-05-22T11:51:41.951Z,67.36
2023-05-22T11:52:41.982Z,67.41
2023-05-22T11:53:41.901Z,67.68
2023-05-22T11:54:41.870Z,67.48
2023-05-22T11:55:41.825Z,67.74
2023-05-22T11:56:41.909Z,68.38
2023-05-22T11:57:41.792Z,68.23
2023-05-22T11:58:41.733Z,69.53
2023-05-22T11:59:41.707Z,68.04
2023-05-22T12:00:41.875Z,67.74
2023-05-22T12:01:41.674Z,68.14
2023-05-22T12:02:41.673Z,66.43
2023-05-22T12:03:41.677Z,65.23
2023-05-22T12:04:41.575Z,66.66
2023-05-22T12:05:41.574Z,64.47
2023-05-22T12:06:41.648Z,63.32
2023-05-22T12:07:41.608Z,62.49
2023-05-22T12:08:41.646Z,60.55
2023-05-22T12:09:41.693Z,60.09
2023-05-22T12:10:41.925Z,57.91
2023-05-22T12:11:41.711Z,57.02
2023-05-22T12:12:41.844Z,55.22
2023-05-22T12:13:41.762Z,54.42
2023-05-22T12:14:41.790Z,54.00
2023-05-22T12:15:41.832Z,51.66
2023-05-22T12:16:41.869Z,49.87
2023-05-22T12:17:41.878Z,50.22
2023-05-22T12:18:41.904Z,48.96
2023-05-22T12:19:41.923Z,46.46
2023-05-22T12:20:41.941Z,46.51
2023-05-22T12:21:42.049Z,47.23
2023-05-22T12:22:42.004Z,47.62
2023-05-22T12:23:42.048Z,46.86
2023-05-22T12:24:42.081Z,46.49
2023-05-22T12:25:42.054Z,46.53
2023-05-22T12:26:42.019Z,46.35
2023-05-22T12:27:41.985Z,45.79
2023-05-22T12:28:42.067Z,45.68
2023-05-22T12:29:41.944Z,42.52
2023-05-22T12:30:42.020Z,41.43
2023-05-22T12:31:41.961Z,41.11
2023-05-22T12:32:41.908Z,40.10